To NAV CANADA Home Page Login to a new session Search on AWWS site Feedback and Comments Disclaimer Vers la page française équivalente Tips FAQ What's new on the site To the Forecasts and Observations / NOTAM section To "File a Flight Plan" website Publications and other links Update of the User's profile FIC Telephone Numbers My Weather Data Folder Route Weather Data Regional Weather Data Local Weather Data To the Forecasts and Observations / NOTAM section
Request Generated 03/06/2015 at 16:00:19 UTC . Weather information available at that time is displayed.

METAR/TAF

EUREKA/NU    

METAR CWEU 061500Z 06003KT 15SM FEW030 FEW060 SCT120 BKN210 M41/M45 A2949 RMK SC1SC1AC1CC1 SLP990=
METAR CWEU 061400Z 09002KT 15SM FEW030 SCT050 BKN120 M41/M45 A2949 RMK SC2SC2AC1 SLP989=
METAR CWEU 061300Z 20002KT 15SM FEW030 SCT120 M42/M45 A2949 RMK SC2AC1 SLP989=

TAF CYEU 061038Z 0611/0623 ADVISORY OFFSITE VRB03KT P6SM SCT030 TEMPO
0611/0618 P6SM -SN BKN030
FM061800 VRB03KT P6SM SCT030 SCT180
RMK NXT FCST BY 061800Z=
Your time UTC time
Weather data provided by Environment Canada and NAV CANADA